sensor_id;sensor_type;location;lat;lon;timestamp;P1;durP1;ratioP1;P2;durP2;ratioP2
15116;SDS011;7659;51.038;13.786;2022-12-07T00:00:24;14.88;;;10.88;;
15116;SDS011;7659;51.038;13.786;2022-12-07T00:02:50;17.30;;;12.07;;
15116;SDS011;7659;51.038;13.786;2022-12-07T00:05:15;17.23;;;11.40;;
15116;SDS011;7659;51.038;13.786;2022-12-07T00:07:41;16.08;;;11.02;;
15116;SDS011;7659;51.038;13.786;2022-12-07T00:10:06;13.98;;;10.27;;
15116;SDS011;7659;51.038;13.786;2022-12-07T00:12:32;16.10;;;11.07;;
15116;SDS011;7659;51.038;13.786;2022-12-07T00:14:57;15.23;;;10.40;;
15116;SDS011;7659;51.038;13.786;2022-12-07T00:17:23;13.82;;;10.13;;
15116;SDS011;7659;51.038;13.786;2022-12-07T00:19:48;15.98;;;10.60;;
15116;SDS011;7659;51.038;13.786;2022-12-07T00:22:13;14.98;;;10.32;;
15116;SDS011;7659;51.038;13.786;2022-12-07T00:24:39;13.35;;;9.90;;
15116;SDS011;7659;51.038;13.786;2022-12-07T00:27:04;15.38;;;10.82;;
15116;SDS011;7659;51.038;13.786;2022-12-07T00:29:30;15.57;;;10.77;;
15116;SDS011;7659;51.038;13.786;2022-12-07T00:31:55;14.40;;;10.25;;
15116;SDS011;7659;51.038;13.786;2022-12-07T00:34:21;16.45;;;10.35;;
15116;SDS011;7659;51.038;13.786;2022-12-07T00:36:46;14.57;;;10.40;;
15116;SDS011;7659;51.038;13.786;2022-12-07T00:39:12;16.70;;;10.15;;
15116;SDS011;7659;51.038;13.786;2022-12-07T00:41:38;16.80;;;10.77;;
15116;SDS011;7659;51.038;13.786;2022-12-07T00:44:03;15.38;;;10.40;;
15116;SDS011;7659;51.038;13.786;2022-12-07T00:46:29;14.80;;;10.50;;
15116;SDS011;7659;51.038;13.786;2022-12-07T00:48:54;15.90;;;10.98;;
15116;SDS011;7659;51.038;13.786;2022-12-07T00:51:21;14.70;;;10.95;;
15116;SDS011;7659;51.038;13.786;2022-12-07T00:53:46;18.40;;;11.85;;
15116;SDS011;7659;51.038;13.786;2022-12-07T00:56:21;15.55;;;11.02;;
15116;SDS011;7659;51.038;13.786;2022-12-07T00:58:57;13.13;;;10.40;;
15116;SDS011;7659;51.038;13.786;2022-12-07T01:01:23;15.10;;;10.93;;
15116;SDS011;7659;51.038;13.786;2022-12-07T01:03:49;16.10;;;11.60;;
15116;SDS011;7659;51.038;13.786;2022-12-07T01:06:16;16.73;;;10.90;;
15116;SDS011;7659;51.038;13.786;2022-12-07T01:08:41;16.98;;;11.15;;
15116;SDS011;7659;51.038;13.786;2022-12-07T01:11:08;14.07;;;10.98;;
15116;SDS011;7659;51.038;13.786;2022-12-07T01:13:34;18.35;;;12.43;;
15116;SDS011;7659;51.038;13.786;2022-12-07T01:16:00;17.80;;;11.73;;
15116;SDS011;7659;51.038;13.786;2022-12-07T01:18:27;18.83;;;11.80;;
15116;SDS011;7659;51.038;13.786;2022-12-07T01:21:03;21.35;;;12.55;;
15116;SDS011;7659;51.038;13.786;2022-12-07T01:23:29;18.90;;;12.35;;
15116;SDS011;7659;51.038;13.786;2022-12-07T01:25:56;19.52;;;12.55;;
15116;SDS011;7659;51.038;13.786;2022-12-07T01:28:22;19.05;;;12.25;;
15116;SDS011;7659;51.038;13.786;2022-12-07T01:30:58;18.40;;;12.93;;
15116;SDS011;7659;51.038;13.786;2022-12-07T01:33:25;18.00;;;11.73;;
15116;SDS011;7659;51.038;13.786;2022-12-07T01:35:51;19.02;;;13.15;;
15116;SDS011;7659;51.038;13.786;2022-12-07T01:38:16;17.33;;;11.85;;
15116;SDS011;7659;51.038;13.786;2022-12-07T01:40:42;18.38;;;12.38;;
15116;SDS011;7659;51.038;13.786;2022-12-07T01:43:15;18.38;;;12.27;;
15116;SDS011;7659;51.038;13.786;2022-12-07T01:45:42;18.88;;;12.18;;
15116;SDS011;7659;51.038;13.786;2022-12-07T01:48:08;18.65;;;12.73;;
15116;SDS011;7659;51.038;13.786;2022-12-07T01:50:34;18.58;;;11.38;;
15116;SDS011;7659;51.038;13.786;2022-12-07T01:53:01;16.85;;;12.43;;
15116;SDS011;7659;51.038;13.786;2022-12-07T01:55:27;17.35;;;11.95;;
15116;SDS011;7659;51.038;13.786;2022-12-07T01:57:54;17.00;;;11.23;;
15116;SDS011;7659;51.038;13.786;2022-12-07T02:00:20;15.05;;;10.82;;
15116;SDS011;7659;51.038;13.786;2022-12-07T02:02:47;14.55;;;10.45;;
15116;SDS011;7659;51.038;13.786;2022-12-07T02:05:13;12.95;;;9.98;;
15116;SDS011;7659;51.038;13.786;2022-12-07T02:07:39;13.95;;;10.02;;
15116;SDS011;7659;51.038;13.786;2022-12-07T02:12:44;14.18;;;9.95;;
15116;SDS011;7659;51.038;13.786;2022-12-07T02:15:11;12.93;;;9.45;;
15116;SDS011;7659;51.038;13.786;2022-12-07T02:17:43;12.27;;;8.88;;
15116;SDS011;7659;51.038;13.786;2022-12-07T02:25:18;12.60;;;8.73;;
15116;SDS011;7659;51.038;13.786;2022-12-07T02:30:14;14.65;;;9.00;;
15116;SDS011;7659;51.038;13.786;2022-12-07T02:32:41;12.52;;;8.40;;
15116;SDS011;7659;51.038;13.786;2022-12-07T02:35:09;11.30;;;7.93;;
15116;SDS011;7659;51.038;13.786;2022-12-07T02:42:51;11.48;;;8.48;;
15116;SDS011;7659;51.038;13.786;2022-12-07T02:45:20;10.43;;;7.63;;
15116;SDS011;7659;51.038;13.786;2022-12-07T02:47:47;11.65;;;8.32;;
15116;SDS011;7659;51.038;13.786;2022-12-07T02:50:13;10.82;;;8.15;;
15116;SDS011;7659;51.038;13.786;2022-12-07T02:52:39;14.60;;;8.40;;
15116;SDS011;7659;51.038;13.786;2022-12-07T02:55:04;14.45;;;8.43;;
15116;SDS011;7659;51.038;13.786;2022-12-07T03:00:13;10.60;;;8.13;;
15116;SDS011;7659;51.038;13.786;2022-12-07T03:10:40;12.63;;;8.48;;
15116;SDS011;7659;51.038;13.786;2022-12-07T03:15:54;11.13;;;8.40;;
15116;SDS011;7659;51.038;13.786;2022-12-07T03:18:21;12.27;;;9.07;;
15116;SDS011;7659;51.038;13.786;2022-12-07T03:20:48;12.88;;;9.25;;
15116;SDS011;7659;51.038;13.786;2022-12-07T03:23:16;12.15;;;8.63;;
15116;SDS011;7659;51.038;13.786;2022-12-07T03:25:44;11.77;;;9.80;;
15116;SDS011;7659;51.038;13.786;2022-12-07T03:28:11;14.45;;;10.18;;
15116;SDS011;7659;51.038;13.786;2022-12-07T03:30:41;15.27;;;10.77;;
15116;SDS011;7659;51.038;13.786;2022-12-07T03:33:09;14.25;;;10.48;;
15116;SDS011;7659;51.038;13.786;2022-12-07T03:35:40;16.95;;;10.98;;
15116;SDS011;7659;51.038;13.786;2022-12-07T03:38:23;16.08;;;11.75;;
15116;SDS011;7659;51.038;13.786;2022-12-07T03:40:53;16.42;;;11.18;;
15116;SDS011;7659;51.038;13.786;2022-12-07T03:43:20;17.05;;;11.52;;
15116;SDS011;7659;51.038;13.786;2022-12-07T03:48:22;16.52;;;11.98;;
15116;SDS011;7659;51.038;13.786;2022-12-07T03:50:52;17.33;;;12.43;;
15116;SDS011;7659;51.038;13.786;2022-12-07T03:53:41;15.15;;;11.82;;
15116;SDS011;7659;51.038;13.786;2022-12-07T03:56:04;15.80;;;12.25;;
15116;SDS011;7659;51.038;13.786;2022-12-07T03:58:30;15.40;;;12.07;;
15116;SDS011;7659;51.038;13.786;2022-12-07T04:00:56;15.05;;;11.50;;
15116;SDS011;7659;51.038;13.786;2022-12-07T04:03:22;15.88;;;12.15;;
15116;SDS011;7659;51.038;13.786;2022-12-07T04:05:47;19.45;;;12.88;;
15116;SDS011;7659;51.038;13.786;2022-12-07T04:08:13;15.35;;;11.60;;
15116;SDS011;7659;51.038;13.786;2022-12-07T04:10:38;16.88;;;12.73;;
15116;SDS011;7659;51.038;13.786;2022-12-07T04:13:04;17.00;;;12.23;;
15116;SDS011;7659;51.038;13.786;2022-12-07T04:15:29;18.60;;;12.68;;
15116;SDS011;7659;51.038;13.786;2022-12-07T04:17:55;14.95;;;11.73;;
15116;SDS011;7659;51.038;13.786;2022-12-07T04:20:20;16.58;;;11.98;;
15116;SDS011;7659;51.038;13.786;2022-12-07T04:22:46;17.17;;;11.73;;
15116;SDS011;7659;51.038;13.786;2022-12-07T04:25:11;17.60;;;12.73;;
15116;SDS011;7659;51.038;13.786;2022-12-07T04:27:37;14.45;;;11.23;;
15116;SDS011;7659;51.038;13.786;2022-12-07T04:30:02;15.63;;;11.68;;
15116;SDS011;7659;51.038;13.786;2022-12-07T04:32:28;14.95;;;11.07;;
15116;SDS011;7659;51.038;13.786;2022-12-07T04:34:54;14.88;;;11.48;;
15116;SDS011;7659;51.038;13.786;2022-12-07T04:37:19;15.18;;;11.02;;
15116;SDS011;7659;51.038;13.786;2022-12-07T04:39:45;15.52;;;11.75;;
15116;SDS011;7659;51.038;13.786;2022-12-07T04:42:10;15.13;;;11.25;;
15116;SDS011;7659;51.038;13.786;2022-12-07T04:44:36;16.50;;;11.05;;
15116;SDS011;7659;51.038;13.786;2022-12-07T04:47:01;19.42;;;12.25;;
15116;SDS011;7659;51.038;13.786;2022-12-07T04:49:27;18.15;;;11.77;;
15116;SDS011;7659;51.038;13.786;2022-12-07T04:51:53;16.70;;;12.15;;
15116;SDS011;7659;51.038;13.786;2022-12-07T04:54:18;17.90;;;12.57;;
15116;SDS011;7659;51.038;13.786;2022-12-07T04:56:44;15.73;;;11.45;;
15116;SDS011;7659;51.038;13.786;2022-12-07T04:59:10;17.15;;;12.10;;
15116;SDS011;7659;51.038;13.786;2022-12-07T05:01:36;17.73;;;12.73;;
15116;SDS011;7659;51.038;13.786;2022-12-07T05:04:02;17.45;;;12.15;;
15116;SDS011;7659;51.038;13.786;2022-12-07T05:06:27;15.68;;;11.77;;
15116;SDS011;7659;51.038;13.786;2022-12-07T05:08:53;19.38;;;11.10;;
15116;SDS011;7659;51.038;13.786;2022-12-07T05:11:18;18.20;;;11.23;;
15116;SDS011;7659;51.038;13.786;2022-12-07T05:14:03;16.55;;;11.52;;
15116;SDS011;7659;51.038;13.786;2022-12-07T05:16:29;17.02;;;10.65;;
15116;SDS011;7659;51.038;13.786;2022-12-07T05:18:54;16.05;;;11.60;;
15116;SDS011;7659;51.038;13.786;2022-12-07T05:21:20;15.63;;;10.20;;
15116;SDS011;7659;51.038;13.786;2022-12-07T05:23:45;15.95;;;11.55;;
15116;SDS011;7659;51.038;13.786;2022-12-07T05:26:11;17.30;;;11.57;;
15116;SDS011;7659;51.038;13.786;2022-12-07T05:28:36;18.92;;;12.30;;
15116;SDS011;7659;51.038;13.786;2022-12-07T05:31:02;20.70;;;11.80;;
15116;SDS011;7659;51.038;13.786;2022-12-07T05:33:28;15.68;;;10.88;;
15116;SDS011;7659;51.038;13.786;2022-12-07T05:35:54;15.32;;;10.63;;
15116;SDS011;7659;51.038;13.786;2022-12-07T05:38:19;16.55;;;10.35;;
15116;SDS011;7659;51.038;13.786;2022-12-07T05:40:44;14.65;;;10.32;;
15116;SDS011;7659;51.038;13.786;2022-12-07T05:43:10;14.43;;;9.77;;
15116;SDS011;7659;51.038;13.786;2022-12-07T05:45:35;15.40;;;10.10;;
15116;SDS011;7659;51.038;13.786;2022-12-07T05:48:01;15.07;;;9.10;;
15116;SDS011;7659;51.038;13.786;2022-12-07T05:50:26;11.95;;;8.95;;
15116;SDS011;7659;51.038;13.786;2022-12-07T05:52:59;13.32;;;8.93;;
15116;SDS011;7659;51.038;13.786;2022-12-07T05:55:24;14.68;;;9.02;;
15116;SDS011;7659;51.038;13.786;2022-12-07T05:57:50;14.52;;;9.40;;
15116;SDS011;7659;51.038;13.786;2022-12-07T06:00:34;16.27;;;10.00;;
15116;SDS011;7659;51.038;13.786;2022-12-07T06:03:00;14.52;;;10.05;;
15116;SDS011;7659;51.038;13.786;2022-12-07T06:05:25;16.00;;;9.35;;
15116;SDS011;7659;51.038;13.786;2022-12-07T06:07:51;12.55;;;8.88;;
15116;SDS011;7659;51.038;13.786;2022-12-07T06:10:16;14.95;;;8.43;;
15116;SDS011;7659;51.038;13.786;2022-12-07T06:12:41;9.93;;;6.90;;
15116;SDS011;7659;51.038;13.786;2022-12-07T06:15:08;9.63;;;6.15;;
15116;SDS011;7659;51.038;13.786;2022-12-07T06:17:35;8.18;;;6.10;;
15116;SDS011;7659;51.038;13.786;2022-12-07T06:20:01;10.30;;;6.00;;
15116;SDS011;7659;51.038;13.786;2022-12-07T06:22:26;7.93;;;5.18;;
15116;SDS011;7659;51.038;13.786;2022-12-07T06:24:51;8.57;;;5.35;;
15116;SDS011;7659;51.038;13.786;2022-12-07T06:27:17;7.00;;;5.10;;
15116;SDS011;7659;51.038;13.786;2022-12-07T06:29:42;8.63;;;5.43;;
15116;SDS011;7659;51.038;13.786;2022-12-07T06:32:08;7.90;;;4.95;;
15116;SDS011;7659;51.038;13.786;2022-12-07T06:34:34;5.90;;;4.85;;
15116;SDS011;7659;51.038;13.786;2022-12-07T06:36:59;9.00;;;5.32;;
15116;SDS011;7659;51.038;13.786;2022-12-07T06:39:26;7.80;;;5.18;;
15116;SDS011;7659;51.038;13.786;2022-12-07T06:41:51;10.02;;;5.57;;
15116;SDS011;7659;51.038;13.786;2022-12-07T06:44:17;7.25;;;4.57;;
15116;SDS011;7659;51.038;13.786;2022-12-07T06:46:43;7.38;;;5.22;;
15116;SDS011;7659;51.038;13.786;2022-12-07T06:49:09;6.80;;;4.80;;
15116;SDS011;7659;51.038;13.786;2022-12-07T06:51:34;8.82;;;5.47;;
15116;SDS011;7659;51.038;13.786;2022-12-07T06:54:15;7.05;;;5.35;;
15116;SDS011;7659;51.038;13.786;2022-12-07T06:59:06;7.13;;;4.57;;
15116;SDS011;7659;51.038;13.786;2022-12-07T07:01:32;6.70;;;5.28;;
15116;SDS011;7659;51.038;13.786;2022-12-07T07:03:58;7.28;;;5.20;;
15116;SDS011;7659;51.038;13.786;2022-12-07T07:06:23;5.72;;;4.40;;
15116;SDS011;7659;51.038;13.786;2022-12-07T07:08:49;5.22;;;3.90;;
15116;SDS011;7659;51.038;13.786;2022-12-07T07:11:14;6.93;;;5.28;;
15116;SDS011;7659;51.038;13.786;2022-12-07T07:13:40;7.00;;;4.90;;
15116;SDS011;7659;51.038;13.786;2022-12-07T07:16:06;6.10;;;4.80;;
15116;SDS011;7659;51.038;13.786;2022-12-07T07:18:31;8.00;;;5.57;;
15116;SDS011;7659;51.038;13.786;2022-12-07T07:20:57;6.95;;;4.65;;
15116;SDS011;7659;51.038;13.786;2022-12-07T07:23:22;7.80;;;5.10;;
15116;SDS011;7659;51.038;13.786;2022-12-07T07:25:48;6.03;;;5.20;;
15116;SDS011;7659;51.038;13.786;2022-12-07T07:28:14;7.15;;;4.55;;
15116;SDS011;7659;51.038;13.786;2022-12-07T07:30:39;6.15;;;5.30;;
15116;SDS011;7659;51.038;13.786;2022-12-07T07:33:05;7.13;;;5.38;;
15116;SDS011;7659;51.038;13.786;2022-12-07T07:35:31;7.93;;;4.75;;
15116;SDS011;7659;51.038;13.786;2022-12-07T07:37:57;6.00;;;4.35;;
15116;SDS011;7659;51.038;13.786;2022-12-07T07:40:22;6.00;;;4.68;;
15116;SDS011;7659;51.038;13.786;2022-12-07T07:42:49;5.82;;;5.05;;
15116;SDS011;7659;51.038;13.786;2022-12-07T07:45:14;6.90;;;4.93;;
15116;SDS011;7659;51.038;13.786;2022-12-07T07:47:40;5.85;;;4.55;;
15116;SDS011;7659;51.038;13.786;2022-12-07T07:50:06;7.00;;;4.70;;
15116;SDS011;7659;51.038;13.786;2022-12-07T07:52:31;6.07;;;4.18;;
15116;SDS011;7659;51.038;13.786;2022-12-07T07:54:57;7.45;;;4.85;;
15116;SDS011;7659;51.038;13.786;2022-12-07T07:57:22;5.38;;;4.20;;
15116;SDS011;7659;51.038;13.786;2022-12-07T07:59:48;6.75;;;5.22;;
15116;SDS011;7659;51.038;13.786;2022-12-07T08:02:15;6.35;;;4.80;;
15116;SDS011;7659;51.038;13.786;2022-12-07T08:04:40;8.75;;;5.05;;
15116;SDS011;7659;51.038;13.786;2022-12-07T08:07:06;5.75;;;5.13;;
15116;SDS011;7659;51.038;13.786;2022-12-07T08:09:31;7.40;;;5.13;;
15116;SDS011;7659;51.038;13.786;2022-12-07T08:11:57;6.85;;;5.88;;
15116;SDS011;7659;51.038;13.786;2022-12-07T08:14:23;7.22;;;5.93;;
15116;SDS011;7659;51.038;13.786;2022-12-07T08:16:49;10.68;;;6.85;;
15116;SDS011;7659;51.038;13.786;2022-12-07T08:19:14;8.80;;;6.22;;
15116;SDS011;7659;51.038;13.786;2022-12-07T08:21:40;19.23;;;12.35;;
15116;SDS011;7659;51.038;13.786;2022-12-07T08:24:05;12.63;;;7.10;;
15116;SDS011;7659;51.038;13.786;2022-12-07T08:26:31;10.15;;;6.63;;
15116;SDS011;7659;51.038;13.786;2022-12-07T08:28:56;12.63;;;7.60;;
15116;SDS011;7659;51.038;13.786;2022-12-07T08:31:22;10.38;;;6.75;;
15116;SDS011;7659;51.038;13.786;2022-12-07T08:33:47;8.63;;;7.18;;
15116;SDS011;7659;51.038;13.786;2022-12-07T08:36:13;12.45;;;7.13;;
15116;SDS011;7659;51.038;13.786;2022-12-07T08:38:39;9.48;;;6.93;;
15116;SDS011;7659;51.038;13.786;2022-12-07T08:41:05;10.73;;;7.22;;
15116;SDS011;7659;51.038;13.786;2022-12-07T08:43:31;8.68;;;6.97;;
15116;SDS011;7659;51.038;13.786;2022-12-07T08:46:03;11.07;;;7.05;;
15116;SDS011;7659;51.038;13.786;2022-12-07T08:48:30;11.13;;;7.13;;
15116;SDS011;7659;51.038;13.786;2022-12-07T08:50:57;11.50;;;7.47;;
15116;SDS011;7659;51.038;13.786;2022-12-07T08:53:22;10.35;;;7.32;;
15116;SDS011;7659;51.038;13.786;2022-12-07T08:55:48;12.55;;;7.55;;
15116;SDS011;7659;51.038;13.786;2022-12-07T08:58:14;10.75;;;7.03;;
15116;SDS011;7659;51.038;13.786;2022-12-07T09:00:39;10.90;;;7.97;;
15116;SDS011;7659;51.038;13.786;2022-12-07T09:03:05;12.55;;;8.50;;
15116;SDS011;7659;51.038;13.786;2022-12-07T09:05:31;12.35;;;8.27;;
15116;SDS011;7659;51.038;13.786;2022-12-07T09:07:57;12.23;;;8.02;;
15116;SDS011;7659;51.038;13.786;2022-12-07T09:10:25;12.23;;;7.15;;
15116;SDS011;7659;51.038;13.786;2022-12-07T09:12:51;12.18;;;7.32;;
15116;SDS011;7659;51.038;13.786;2022-12-07T09:15:17;12.18;;;6.53;;
15116;SDS011;7659;51.038;13.786;2022-12-07T09:17:42;11.20;;;6.90;;
15116;SDS011;7659;51.038;13.786;2022-12-07T09:20:08;11.93;;;6.75;;
15116;SDS011;7659;51.038;13.786;2022-12-07T09:22:33;9.68;;;7.05;;
15116;SDS011;7659;51.038;13.786;2022-12-07T09:24:59;9.40;;;6.55;;
15116;SDS011;7659;51.038;13.786;2022-12-07T09:27:25;9.35;;;6.13;;
15116;SDS011;7659;51.038;13.786;2022-12-07T09:29:51;12.35;;;7.68;;
15116;SDS011;7659;51.038;13.786;2022-12-07T09:32:16;10.38;;;6.63;;
15116;SDS011;7659;51.038;13.786;2022-12-07T09:34:42;10.75;;;6.57;;
15116;SDS011;7659;51.038;13.786;2022-12-07T09:37:07;10.23;;;5.93;;
15116;SDS011;7659;51.038;13.786;2022-12-07T09:39:33;10.18;;;6.13;;
15116;SDS011;7659;51.038;13.786;2022-12-07T09:41:59;10.02;;;6.30;;
15116;SDS011;7659;51.038;13.786;2022-12-07T09:44:25;8.15;;;6.15;;
15116;SDS011;7659;51.038;13.786;2022-12-07T09:46:52;9.10;;;5.80;;
15116;SDS011;7659;51.038;13.786;2022-12-07T09:49:21;10.13;;;5.70;;
15116;SDS011;7659;51.038;13.786;2022-12-07T09:52:51;9.65;;;5.75;;
15116;SDS011;7659;51.038;13.786;2022-12-07T09:54:46;10.85;;;5.90;;
15116;SDS011;7659;51.038;13.786;2022-12-07T09:57:12;10.90;;;6.07;;
15116;SDS011;7659;51.038;13.786;2022-12-07T09:59:38;8.23;;;5.32;;
15116;SDS011;7659;51.038;13.786;2022-12-07T10:04:49;10.77;;;5.35;;
15116;SDS011;7659;51.038;13.786;2022-12-07T10:07:15;9.10;;;5.75;;
15116;SDS011;7659;51.038;13.786;2022-12-07T10:09:40;6.55;;;4.60;;
15116;SDS011;7659;51.038;13.786;2022-12-07T10:12:07;9.43;;;5.47;;
15116;SDS011;7659;51.038;13.786;2022-12-07T10:14:35;8.60;;;5.20;;
15116;SDS011;7659;51.038;13.786;2022-12-07T10:17:00;8.20;;;5.53;;
15116;SDS011;7659;51.038;13.786;2022-12-07T10:19:30;10.68;;;5.20;;
15116;SDS011;7659;51.038;13.786;2022-12-07T10:22:04;12.55;;;4.78;;
15116;SDS011;7659;51.038;13.786;2022-12-07T10:24:30;9.45;;;5.22;;
15116;SDS011;7659;51.038;13.786;2022-12-07T10:26:56;14.07;;;5.32;;
15116;SDS011;7659;51.038;13.786;2022-12-07T10:29:32;12.05;;;5.10;;
15116;SDS011;7659;51.038;13.786;2022-12-07T10:32:02;9.27;;;5.13;;
15116;SDS011;7659;51.038;13.786;2022-12-07T10:34:36;12.00;;;4.82;;
15116;SDS011;7659;51.038;13.786;2022-12-07T10:42:18;10.23;;;5.30;;
15116;SDS011;7659;51.038;13.786;2022-12-07T10:44:44;9.45;;;4.97;;
15116;SDS011;7659;51.038;13.786;2022-12-07T11:02:30;11.52;;;5.53;;
15116;SDS011;7659;51.038;13.786;2022-12-07T11:05:04;9.85;;;5.13;;
15116;SDS011;7659;51.038;13.786;2022-12-07T11:07:38;11.48;;;5.90;;
15116;SDS011;7659;51.038;13.786;2022-12-07T11:10:10;14.32;;;6.25;;
15116;SDS011;7659;51.038;13.786;2022-12-07T11:12:47;10.25;;;5.88;;
15116;SDS011;7659;51.038;13.786;2022-12-07T11:15:30;11.77;;;5.63;;
15116;SDS011;7659;51.038;13.786;2022-12-07T11:18:02;11.15;;;5.13;;
15116;SDS011;7659;51.038;13.786;2022-12-07T11:20:38;10.52;;;5.40;;
15116;SDS011;7659;51.038;13.786;2022-12-07T11:25:41;8.82;;;5.43;;
15116;SDS011;7659;51.038;13.786;2022-12-07T11:28:25;9.77;;;4.80;;
15116;SDS011;7659;51.038;13.786;2022-12-07T11:36:02;10.15;;;5.35;;
15116;SDS011;7659;51.038;13.786;2022-12-07T11:41:01;11.13;;;5.15;;
15116;SDS011;7659;51.038;13.786;2022-12-07T11:43:41;7.72;;;4.53;;
15116;SDS011;7659;51.038;13.786;2022-12-07T11:46:12;9.88;;;5.57;;
15116;SDS011;7659;51.038;13.786;2022-12-07T11:48:47;13.38;;;5.15;;
15116;SDS011;7659;51.038;13.786;2022-12-07T11:51:14;11.07;;;5.93;;
15116;SDS011;7659;51.038;13.786;2022-12-07T11:53:46;11.93;;;6.35;;
15116;SDS011;7659;51.038;13.786;2022-12-07T11:56:15;10.13;;;5.60;;
15116;SDS011;7659;51.038;13.786;2022-12-07T12:03:58;12.85;;;6.22;;
15116;SDS011;7659;51.038;13.786;2022-12-07T12:06:26;11.45;;;5.78;;
15116;SDS011;7659;51.038;13.786;2022-12-07T12:13:56;12.77;;;6.70;;
15116;SDS011;7659;51.038;13.786;2022-12-07T12:21:27;13.82;;;5.32;;
15116;SDS011;7659;51.038;13.786;2022-12-07T12:24:04;13.73;;;5.72;;
15116;SDS011;7659;51.038;13.786;2022-12-07T12:26:32;8.80;;;5.43;;
15116;SDS011;7659;51.038;13.786;2022-12-07T12:33:53;11.43;;;5.60;;
15116;SDS011;7659;51.038;13.786;2022-12-07T12:44:08;8.70;;;3.60;;
15116;SDS011;7659;51.038;13.786;2022-12-07T12:46:49;10.48;;;2.78;;
15116;SDS011;7659;51.038;13.786;2022-12-07T12:52:00;7.05;;;2.10;;
15116;SDS011;7659;51.038;13.786;2022-12-07T12:54:31;5.97;;;2.13;;
15116;SDS011;7659;51.038;13.786;2022-12-07T12:59:42;5.97;;;2.35;;
15116;SDS011;7659;51.038;13.786;2022-12-07T13:12:59;2.45;;;1.58;;
15116;SDS011;7659;51.038;13.786;2022-12-07T13:15:37;4.40;;;1.60;;
15116;SDS011;7659;51.038;13.786;2022-12-07T13:18:04;6.72;;;1.30;;
15116;SDS011;7659;51.038;13.786;2022-12-07T13:23:22;3.30;;;1.65;;
15116;SDS011;7659;51.038;13.786;2022-12-07T13:25:54;4.88;;;2.17;;
15116;SDS011;7659;51.038;13.786;2022-12-07T13:28:20;4.80;;;1.90;;
15116;SDS011;7659;51.038;13.786;2022-12-07T13:30:53;5.47;;;2.17;;
15116;SDS011;7659;51.038;13.786;2022-12-07T13:33:24;4.63;;;2.80;;
15116;SDS011;7659;51.038;13.786;2022-12-07T13:35:55;6.90;;;3.13;;
15116;SDS011;7659;51.038;13.786;2022-12-07T13:38:27;3.95;;;2.17;;
15116;SDS011;7659;51.038;13.786;2022-12-07T13:41:26;7.38;;;2.45;;
15116;SDS011;7659;51.038;13.786;2022-12-07T13:43:52;3.42;;;2.38;;
15116;SDS011;7659;51.038;13.786;2022-12-07T13:46:24;3.40;;;2.53;;
15116;SDS011;7659;51.038;13.786;2022-12-07T13:48:50;5.15;;;2.50;;
15116;SDS011;7659;51.038;13.786;2022-12-07T13:51:17;5.53;;;2.95;;
15116;SDS011;7659;51.038;13.786;2022-12-07T13:53:46;7.85;;;3.22;;
15116;SDS011;7659;51.038;13.786;2022-12-07T13:56:12;7.22;;;3.40;;
15116;SDS011;7659;51.038;13.786;2022-12-07T13:58:39;8.27;;;4.10;;
15116;SDS011;7659;51.038;13.786;2022-12-07T14:01:05;7.47;;;4.13;;
15116;SDS011;7659;51.038;13.786;2022-12-07T14:03:34;7.05;;;4.25;;
15116;SDS011;7659;51.038;13.786;2022-12-07T14:08:42;8.40;;;4.18;;
15116;SDS011;7659;51.038;13.786;2022-12-07T14:11:09;9.95;;;4.32;;
15116;SDS011;7659;51.038;13.786;2022-12-07T14:13:38;8.20;;;3.60;;
15116;SDS011;7659;51.038;13.786;2022-12-07T14:18:53;5.70;;;4.18;;
15116;SDS011;7659;51.038;13.786;2022-12-07T14:21:20;10.20;;;4.95;;
15116;SDS011;7659;51.038;13.786;2022-12-07T14:26:32;10.25;;;4.43;;
15116;SDS011;7659;51.038;13.786;2022-12-07T14:31:42;11.90;;;5.18;;
15116;SDS011;7659;51.038;13.786;2022-12-07T14:34:11;10.52;;;3.58;;
15116;SDS011;7659;51.038;13.786;2022-12-07T14:36:37;9.50;;;4.57;;
15116;SDS011;7659;51.038;13.786;2022-12-07T14:39:02;10.13;;;4.40;;
15116;SDS011;7659;51.038;13.786;2022-12-07T14:41:27;8.18;;;4.28;;
15116;SDS011;7659;51.038;13.786;2022-12-07T14:44:12;8.88;;;5.10;;
15116;SDS011;7659;51.038;13.786;2022-12-07T14:46:38;8.55;;;5.30;;
15116;SDS011;7659;51.038;13.786;2022-12-07T14:49:03;12.95;;;5.10;;
15116;SDS011;7659;51.038;13.786;2022-12-07T14:51:29;11.85;;;4.70;;
15116;SDS011;7659;51.038;13.786;2022-12-07T14:53:54;6.82;;;4.60;;
15116;SDS011;7659;51.038;13.786;2022-12-07T14:56:20;8.80;;;5.25;;
15116;SDS011;7659;51.038;13.786;2022-12-07T14:58:45;11.48;;;5.38;;
15116;SDS011;7659;51.038;13.786;2022-12-07T15:01:13;9.00;;;4.43;;
15116;SDS011;7659;51.038;13.786;2022-12-07T15:03:38;12.38;;;4.80;;
15116;SDS011;7659;51.038;13.786;2022-12-07T15:06:05;12.18;;;5.47;;
15116;SDS011;7659;51.038;13.786;2022-12-07T15:08:30;12.68;;;5.50;;
15116;SDS011;7659;51.038;13.786;2022-12-07T15:10:56;10.70;;;5.18;;
15116;SDS011;7659;51.038;13.786;2022-12-07T15:13:21;8.52;;;4.93;;
15116;SDS011;7659;51.038;13.786;2022-12-07T15:16:07;8.93;;;4.10;;
15116;SDS011;7659;51.038;13.786;2022-12-07T15:18:35;9.45;;;4.80;;
15116;SDS011;7659;51.038;13.786;2022-12-07T15:21:00;12.10;;;6.20;;
15116;SDS011;7659;51.038;13.786;2022-12-07T15:23:26;12.45;;;4.88;;
15116;SDS011;7659;51.038;13.786;2022-12-07T15:25:51;9.50;;;3.38;;
15116;SDS011;7659;51.038;13.786;2022-12-07T15:28:16;6.47;;;2.67;;
15116;SDS011;7659;51.038;13.786;2022-12-07T15:30:42;8.65;;;3.13;;
15116;SDS011;7659;51.038;13.786;2022-12-07T15:33:08;6.25;;;2.60;;
15116;SDS011;7659;51.038;13.786;2022-12-07T15:35:38;6.50;;;2.85;;
15116;SDS011;7659;51.038;13.786;2022-12-07T15:38:03;8.65;;;2.75;;
15116;SDS011;7659;51.038;13.786;2022-12-07T15:40:29;5.25;;;2.47;;
15116;SDS011;7659;51.038;13.786;2022-12-07T15:42:54;10.55;;;2.60;;
15116;SDS011;7659;51.038;13.786;2022-12-07T15:45:20;10.23;;;2.42;;
15116;SDS011;7659;51.038;13.786;2022-12-07T15:47:45;6.18;;;2.40;;
15116;SDS011;7659;51.038;13.786;2022-12-07T15:50:12;8.85;;;2.20;;
15116;SDS011;7659;51.038;13.786;2022-12-07T15:52:38;7.65;;;2.45;;
15116;SDS011;7659;51.038;13.786;2022-12-07T15:55:04;6.28;;;2.35;;
15116;SDS011;7659;51.038;13.786;2022-12-07T15:57:30;9.70;;;2.22;;
15116;SDS011;7659;51.038;13.786;2022-12-07T15:59:56;5.82;;;2.15;;
15116;SDS011;7659;51.038;13.786;2022-12-07T16:02:21;8.77;;;2.75;;
15116;SDS011;7659;51.038;13.786;2022-12-07T16:04:48;6.05;;;2.55;;
15116;SDS011;7659;51.038;13.786;2022-12-07T16:07:15;5.75;;;2.40;;
15116;SDS011;7659;51.038;13.786;2022-12-07T16:09:41;7.75;;;2.30;;
15116;SDS011;7659;51.038;13.786;2022-12-07T16:12:07;5.85;;;2.40;;
15116;SDS011;7659;51.038;13.786;2022-12-07T16:14:32;4.38;;;2.17;;
15116;SDS011;7659;51.038;13.786;2022-12-07T16:16:58;7.95;;;2.60;;
15116;SDS011;7659;51.038;13.786;2022-12-07T16:19:24;5.75;;;2.28;;
15116;SDS011;7659;51.038;13.786;2022-12-07T16:21:49;11.27;;;2.80;;
15116;SDS011;7659;51.038;13.786;2022-12-07T16:24:15;7.90;;;2.50;;
15116;SDS011;7659;51.038;13.786;2022-12-07T16:26:41;8.20;;;2.70;;
15116;SDS011;7659;51.038;13.786;2022-12-07T16:29:07;9.05;;;2.55;;
15116;SDS011;7659;51.038;13.786;2022-12-07T16:31:35;8.35;;;2.80;;
15116;SDS011;7659;51.038;13.786;2022-12-07T16:34:01;8.68;;;2.80;;
15116;SDS011;7659;51.038;13.786;2022-12-07T16:36:26;5.35;;;2.60;;
15116;SDS011;7659;51.038;13.786;2022-12-07T16:38:52;5.03;;;3.08;;
15116;SDS011;7659;51.038;13.786;2022-12-07T16:41:18;7.78;;;3.05;;